Time;durP1;ratioP1;P1;durP2;ratioP2;P2;SDS_P1;SDS_P2;PMS_P1;PMS_P2;Temp;Humidity;BMP_temperature;BMP_pressure;BME280_temperature;BME280_humidity;BME280_pressure;Samples;Min_cycle;Max_cycle;Signal;HPM_P1;HPM_P2
2022/09/14 00:00:36;;;;;;;4.03;0.90;;;17.90;99.90;;;;;;5054744;28;20188;-78
2022/09/14 00:03:06;;;;;;;4.07;0.80;;;18.00;99.90;;;;;;5069164;28;20279;-76
2022/09/14 00:05:38;;;;;;;2.10;0.60;;;18.30;99.90;;;;;;5072943;28;20206;-76
2022/09/14 00:08:09;;;;;;;2.53;0.70;;;18.30;99.90;;;;;;5069298;28;20231;-76
2022/09/14 00:10:44;;;;;;;2.83;0.73;;;18.50;99.90;;;;;;5053784;28;20200;-76
2022/09/14 00:13:16;;;;;;;3.88;1.00;;;18.50;99.90;;;;;;5070027;28;20538;-77
2022/09/14 00:15:47;;;;;;;2.85;0.70;;;18.80;99.90;;;;;;5073381;28;20278;-77
2022/09/14 00:18:18;;;;;;;2.15;0.77;;;18.90;99.90;;;;;;5072478;28;20583;-76
2022/09/14 00:20:51;;;;;;;1.48;0.63;;;19.10;99.90;;;;;;5073571;28;20671;-79
2022/09/14 00:23:21;;;;;;;3.22;0.70;;;19.20;99.90;;;;;;5070436;28;20218;-78
2022/09/14 00:25:54;;;;;;;3.08;0.90;;;19.40;99.90;;;;;;5072644;28;20283;-79
2022/09/14 00:28:25;;;;;;;2.72;0.80;;;19.40;99.90;;;;;;5072140;28;20288;-79
2022/09/14 00:30:56;;;;;;;1.55;0.60;;;19.40;99.90;;;;;;5071717;28;20200;-80
2022/09/14 00:33:26;;;;;;;12.88;0.93;;;19.40;99.90;;;;;;5069695;28;20223;-79
2022/09/14 00:35:57;;;;;;;2.13;0.93;;;19.50;99.90;;;;;;5071660;28;20222;-78
2022/09/14 00:38:29;;;;;;;2.05;0.65;;;19.50;99.90;;;;;;5067910;28;20231;-77
2022/09/14 00:41:03;;;;;;;2.17;0.70;;;19.60;99.90;;;;;;5072637;28;20202;-76
2022/09/14 00:43:34;;;;;;;0.73;0.50;;;19.50;99.90;;;;;;5069586;28;20279;-77
2022/09/14 00:46:04;;;;;;;1.63;0.55;;;19.60;99.90;;;;;;5063237;28;20283;-78
2022/09/14 00:48:35;;;;;;;2.25;0.80;;;19.80;99.90;;;;;;5065896;28;20275;-78
2022/09/14 00:51:06;;;;;;;1.20;0.60;;;19.80;99.90;;;;;;5067955;28;20206;-78
2022/09/14 00:53:38;;;;;;;2.83;0.60;;;19.80;99.90;;;;;;5068183;28;20212;-78
2022/09/14 00:56:10;;;;;;;3.10;0.55;;;20.00;99.90;;;;;;5071931;28;20235;-79
2022/09/14 00:58:42;;;;;;;1.75;0.65;;;20.10;99.90;;;;;;5064137;28;20331;-79
2022/09/14 01:01:13;;;;;;;2.60;0.65;;;20.20;99.90;;;;;;5052962;28;20520;-78
2022/09/14 01:03:43;;;;;;;1.45;0.55;;;20.20;99.90;;;;;;5066215;28;20298;-79
2022/09/14 01:06:27;;;;;;;1.45;0.45;;;20.30;99.90;;;;;;5059525;28;20288;-79
2022/09/14 01:09:14;;;;;;;1.65;0.60;;;20.30;99.90;;;;;;5069186;28;20222;-79
2022/09/14 01:12:00;;;;;;;1.88;0.80;;;20.50;99.90;;;;;;5071185;28;20689;-80
2022/09/14 01:14:40;;;;;;;2.88;0.63;;;20.50;99.90;;;;;;5070352;28;20202;-78
2022/09/14 01:17:19;;;;;;;1.70;0.73;;;20.40;99.90;;;;;;5070685;28;20204;-79
2022/09/14 01:20:09;;;;;;;4.45;0.90;;;20.40;99.90;;;;;;5071726;28;20236;-78
2022/09/14 01:22:49;;;;;;;1.58;0.70;;;20.20;99.90;;;;;;5069335;28;20203;-79
2022/09/14 01:25:36;;;;;;;3.60;0.70;;;20.10;99.90;;;;;;5071624;28;20206;-79
2022/09/14 01:28:13;;;;;;;2.22;0.80;;;20.40;99.90;;;;;;5072014;28;20206;-79
2022/09/14 01:30:46;;;;;;;4.70;1.50;;;20.60;99.90;;;;;;5056101;28;20196;-79
2022/09/14 01:33:21;;;;;;;2.13;0.68;;;20.60;99.90;;;;;;5053179;28;20230;-79
2022/09/14 01:35:57;;;;;;;3.63;0.50;;;20.60;99.90;;;;;;5052295;28;20592;-80
2022/09/14 01:38:32;;;;;;;1.75;0.60;;;20.40;99.90;;;;;;5057188;28;20282;-79
2022/09/14 01:41:07;;;;;;;2.00;0.52;;;20.50;99.90;;;;;;5069429;28;20200;-78
2022/09/14 01:43:42;;;;;;;1.33;0.50;;;20.50;99.90;;;;;;5069404;28;20196;-77
2022/09/14 01:46:16;;;;;;;2.40;0.47;;;20.70;99.90;;;;;;5070137;28;20571;-77
2022/09/14 01:48:52;;;;;;;2.80;0.70;;;20.70;99.90;;;;;;5051613;28;20617;-78
2022/09/14 01:51:28;;;;;;;2.67;0.70;;;20.70;99.90;;;;;;5052029;28;20566;-77
2022/09/14 01:54:04;;;;;;;2.03;0.57;;;20.80;99.90;;;;;;5058877;28;20210;-77
2022/09/14 01:56:38;;;;;;;2.10;1.10;;;20.80;99.90;;;;;;5064192;28;20219;-77
2022/09/14 01:59:16;;;;;;;1.50;0.50;;;20.90;99.90;;;;;;5054437;28;20222;-77
2022/09/14 02:01:51;;;;;;;1.63;0.57;;;20.90;99.90;;;;;;5069251;28;20195;-76
2022/09/14 02:04:39;;;;;;;1.73;0.60;;;20.90;99.90;;;;;;5070679;28;20647;-77
2022/09/14 02:07:10;;;;;;;0.80;0.40;;;21.10;99.90;;;;;;5060036;28;20192;-76
2022/09/14 02:09:41;;;;;;;0.98;0.40;;;21.30;99.90;;;;;;5070564;28;20210;-77
2022/09/14 02:12:12;;;;;;;0.95;0.40;;;21.20;99.90;;;;;;5066650;28;20241;-76
2022/09/14 02:14:45;;;;;;;1.08;0.40;;;20.90;99.90;;;;;;5058629;28;20488;-76
2022/09/14 02:17:17;;;;;;;1.20;0.50;;;20.90;99.90;;;;;;5066214;28;20193;-77
2022/09/14 02:19:51;;;;;;;2.53;0.40;;;21.00;99.90;;;;;;5058204;28;20230;-76
2022/09/14 02:22:21;;;;;;;1.15;0.32;;;20.90;99.90;;;;;;5067630;28;20200;-77
2022/09/14 02:24:55;;;;;;;2.63;0.60;;;21.10;99.90;;;;;;5070094;28;20196;-77
2022/09/14 02:27:27;;;;;;;2.22;0.60;;;21.20;99.90;;;;;;5063285;28;20196;-78
2022/09/14 02:30:00;;;;;;;1.27;0.47;;;21.20;99.90;;;;;;5068597;28;20200;-77
2022/09/14 02:32:40;;;;;;;0.43;0.40;;;21.20;99.90;;;;;;5063623;28;20701;-77
2022/09/14 02:35:17;;;;;;;2.22;0.60;;;21.20;99.90;;;;;;5061191;28;20203;-77
2022/09/14 02:37:57;;;;;;;2.17;0.50;;;21.30;99.90;;;;;;5063975;28;20199;-76
2022/09/14 02:40:35;;;;;;;1.23;0.45;;;21.40;99.90;;;;;;5067680;28;20231;-76
2022/09/14 02:43:21;;;;;;;1.13;0.43;;;21.20;99.90;;;;;;5067232;28;20204;-76
2022/09/14 02:46:00;;;;;;;1.13;0.40;;;21.10;99.90;;;;;;5061262;28;20206;-77
2022/09/14 02:48:40;;;;;;;2.78;0.52;;;21.00;99.90;;;;;;5057030;28;20192;-77
2022/09/14 02:51:21;;;;;;;2.72;0.55;;;21.00;99.90;;;;;;5067751;28;20203;-77
2022/09/14 02:53:58;;;;;;;1.45;0.40;;;20.70;99.90;;;;;;5066128;28;20192;-76
2022/09/14 02:56:30;;;;;;;0.43;0.32;;;20.60;99.90;;;;;;5050445;28;20568;-75
2022/09/14 02:59:01;;;;;;;0.98;0.40;;;20.60;99.90;;;;;;5065607;28;20219;-76
2022/09/14 03:01:34;;;;;;;1.75;0.40;;;20.70;99.90;;;;;;5069245;28;20206;-76
2022/09/14 03:04:05;;;;;;;0.75;0.38;;;20.50;99.90;;;;;;5057825;28;20200;-77
2022/09/14 03:06:36;;;;;;;2.08;0.50;;;20.30;99.90;;;;;;5061823;28;20191;-76
2022/09/14 03:09:07;;;;;;;2.03;0.60;;;20.10;99.90;;;;;;5073461;28;20272;-77
2022/09/14 03:11:38;;;;;;;0.32;0.20;;;19.70;99.90;;;;;;5076317;28;20204;-76
2022/09/14 03:14:09;;;;;;;1.27;0.30;;;19.80;99.90;;;;;;5077370;28;20663;-78
2022/09/14 03:16:42;;;;;;;0.77;0.30;;;20.00;99.90;;;;;;5069609;28;20318;-78
2022/09/14 03:19:13;;;;;;;2.03;0.50;;;20.20;99.90;;;;;;5064124;28;20223;-78
2022/09/14 03:21:44;;;;;;;1.63;0.38;;;20.40;99.90;;;;;;5066568;28;20287;-78
2022/09/14 03:24:14;;;;;;;1.20;0.47;;;20.40;99.90;;;;;;5070776;28;20188;-78
2022/09/14 03:26:46;;;;;;;2.88;0.40;;;20.20;99.90;;;;;;5070583;28;20204;-77
2022/09/14 03:29:16;;;;;;;0.52;0.30;;;19.90;99.90;;;;;;5071355;28;20883;-78
2022/09/14 03:31:49;;;;;;;1.42;0.40;;;19.80;99.90;;;;;;5071488;28;20200;-78
2022/09/14 03:34:21;;;;;;;0.93;0.50;;;19.60;99.90;;;;;;5071547;28;20200;-80
2022/09/14 03:36:52;;;;;;;1.02;0.30;;;19.40;99.90;;;;;;5070587;28;20192;-79
2022/09/14 03:39:23;;;;;;;2.47;0.30;;;19.60;99.90;;;;;;5057201;28;20223;-79
2022/09/14 03:41:53;;;;;;;2.55;0.50;;;20.00;99.90;;;;;;5075861;28;20247;-78
2022/09/14 03:44:24;;;;;;;1.80;0.43;;;20.10;99.90;;;;;;5068394;28;20196;-78
2022/09/14 03:46:57;;;;;;;3.63;0.40;;;20.30;99.90;;;;;;5073728;28;20656;-79
2022/09/14 03:49:28;;;;;;;1.80;0.50;;;20.40;99.90;;;;;;5068980;28;20192;-77
2022/09/14 03:51:58;;;;;;;1.38;0.40;;;20.30;99.90;;;;;;5060823;28;20200;-78
2022/09/14 03:54:29;;;;;;;1.45;0.25;;;20.40;99.90;;;;;;5073318;28;20188;-78
2022/09/14 03:57:00;;;;;;;0.60;0.30;;;20.40;99.90;;;;;;5063373;28;20283;-79
2022/09/14 03:59:31;;;;;;;1.80;0.40;;;20.50;99.90;;;;;;5058943;28;20223;-79
2022/09/14 04:02:04;;;;;;;1.42;0.50;;;20.40;99.90;;;;;;5063709;28;20647;-78
2022/09/14 04:04:35;;;;;;;1.38;0.30;;;20.30;99.90;;;;;;5066704;28;20196;-78
2022/09/14 04:07:06;;;;;;;4.03;0.38;;;20.20;99.90;;;;;;5066278;28;20197;-79
2022/09/14 04:09:37;;;;;;;1.33;0.30;;;19.90;99.90;;;;;;5070337;28;20199;-77
2022/09/14 04:12:08;;;;;;;1.05;0.20;;;19.80;99.90;;;;;;5071849;28;20280;-78
2022/09/14 04:14:39;;;;;;;1.67;0.30;;;19.60;99.90;;;;;;5070483;28;20586;-78
2022/09/14 04:17:12;;;;;;;0.88;0.40;;;19.50;99.90;;;;;;5072851;28;20574;-76
2022/09/14 04:19:42;;;;;;;0.73;0.30;;;19.60;99.90;;;;;;5072093;28;20224;-77
2022/09/14 04:22:13;;;;;;;1.58;0.43;;;19.70;99.90;;;;;;5070211;28;20192;-78
2022/09/14 04:24:44;;;;;;;2.20;0.43;;;19.70;99.90;;;;;;5070775;28;20223;-77
2022/09/14 04:27:15;;;;;;;0.57;0.30;;;19.80;99.90;;;;;;5071910;28;20203;-78
2022/09/14 04:29:46;;;;;;;0.80;0.20;;;19.80;99.90;;;;;;5067911;28;20627;-78
2022/09/14 04:32:19;;;;;;;0.85;0.20;;;19.70;99.90;;;;;;5071736;28;20212;-77
2022/09/14 04:34:51;;;;;;;1.45;0.30;;;19.70;99.90;;;;;;5056960;28;20206;-77
2022/09/14 04:37:22;;;;;;;0.50;0.40;;;19.60;99.90;;;;;;5059234;28;20283;-76
2022/09/14 04:39:53;;;;;;;0.73;0.22;;;19.70;99.90;;;;;;5072790;28;20698;-78
2022/09/14 04:42:23;;;;;;;1.27;0.30;;;19.80;99.90;;;;;;5058913;28;20213;-78
2022/09/14 04:44:54;;;;;;;1.08;0.38;;;19.90;99.90;;;;;;5065561;28;20287;-79
2022/09/14 04:47:27;;;;;;;0.88;0.30;;;19.90;99.90;;;;;;5071065;28;20212;-77
2022/09/14 04:49:57;;;;;;;0.95;0.22;;;19.70;99.90;;;;;;5064871;28;20197;-78
2022/09/14 04:52:28;;;;;;;2.38;0.30;;;19.60;99.90;;;;;;5069760;28;20196;-78
2022/09/14 04:54:59;;;;;;;0.80;0.20;;;19.60;99.90;;;;;;5059897;28;20232;-77
2022/09/14 04:57:30;;;;;;;0.25;0.20;;;19.60;99.90;;;;;;5069212;28;20196;-78
2022/09/14 05:00:01;;;;;;;1.23;0.30;;;19.60;99.90;;;;;;5055804;28;20212;-78
2022/09/14 05:02:33;;;;;;;0.28;0.20;;;19.50;99.90;;;;;;5071081;28;20192;-77
2022/09/14 05:05:05;;;;;;;0.30;0.30;;;19.40;99.90;;;;;;5062069;28;20200;-77
2022/09/14 05:07:36;;;;;;;2.20;0.30;;;19.40;99.90;;;;;;5059475;28;20200;-77
2022/09/14 05:10:08;;;;;;;1.25;0.35;;;19.40;99.90;;;;;;5064751;28;20208;-77
2022/09/14 05:12:39;;;;;;;1.08;0.30;;;19.40;99.90;;;;;;5070460;28;20611;-76
2022/09/14 05:15:11;;;;;;;1.77;0.40;;;19.50;99.90;;;;;;5071490;28;20516;-77
2022/09/14 05:17:43;;;;;;;0.63;0.43;;;19.40;99.90;;;;;;5071516;28;20565;-77
2022/09/14 05:20:14;;;;;;;0.70;0.38;;;19.30;99.90;;;;;;5068613;28;20224;-77
2022/09/14 05:22:46;;;;;;;1.33;0.50;;;19.30;99.90;;;;;;5069619;28;20202;-77
2022/09/14 05:25:17;;;;;;;1.30;0.40;;;19.30;99.90;;;;;;5071303;28;20204;-77
2022/09/14 05:27:48;;;;;;;0.80;0.25;;;19.40;99.90;;;;;;5071158;28;20219;-77
2022/09/14 05:30:19;;;;;;;1.48;0.35;;;19.50;99.90;;;;;;5069883;28;20206;-77
2022/09/14 05:32:51;;;;;;;0.60;0.30;;;19.40;99.90;;;;;;5070135;28;20195;-77
2022/09/14 05:35:22;;;;;;;0.60;0.30;;;19.50;99.90;;;;;;5062220;28;20196;-77
2022/09/14 05:37:53;;;;;;;0.73;0.40;;;19.60;99.90;;;;;;5059725;28;20196;-77
2022/09/14 05:40:24;;;;;;;1.05;0.30;;;19.70;99.90;;;;;;5064121;28;20239;-78
2022/09/14 05:42:54;;;;;;;0.70;0.30;;;19.80;99.90;;;;;;5054233;28;20222;-77
2022/09/14 05:45:25;;;;;;;0.30;0.20;;;20.00;99.90;;;;;;5069650;28;20195;-78
2022/09/14 05:48:04;;;;;;;0.95;0.30;;;20.00;99.90;;;;;;5071939;28;20204;-77
2022/09/14 05:50:35;;;;;;;0.43;0.20;;;20.00;99.90;;;;;;5068663;28;20192;-77
2022/09/14 05:53:06;;;;;;;2.38;0.30;;;20.00;99.90;;;;;;5068507;28;20686;-78
2022/09/14 05:55:40;;;;;;;1.60;0.40;;;20.00;99.90;;;;;;5069481;28;20695;-78
2022/09/14 05:58:12;;;;;;;2.45;0.50;;;20.00;99.90;;;;;;5070130;28;20226;-78
2022/09/14 06:00:42;;;;;;;2.45;0.30;;;20.20;99.90;;;;;;5068291;28;20698;-77
2022/09/14 06:03:15;;;;;;;1.98;0.60;;;20.40;99.90;;;;;;5070355;28;20215;-77
2022/09/14 06:05:46;;;;;;;0.63;0.40;;;20.50;99.90;;;;;;5059143;28;20233;-77
2022/09/14 06:08:17;;;;;;;0.40;0.30;;;20.60;99.90;;;;;;5067505;28;20196;-78
2022/09/14 06:10:47;;;;;;;2.20;0.30;;;20.70;99.90;;;;;;5065117;28;20206;-77
2022/09/14 06:13:18;;;;;;;2.08;0.50;;;20.80;99.90;;;;;;5068767;28;20196;-77
2022/09/14 06:15:49;;;;;;;0.85;0.40;;;20.70;99.90;;;;;;5059295;28;20201;-77
2022/09/14 06:18:21;;;;;;;1.25;0.50;;;20.70;99.90;;;;;;5050923;28;20527;-77
2022/09/14 06:20:55;;;;;;;1.05;0.40;;;20.80;99.90;;;;;;5063373;28;20645;-77
2022/09/14 06:23:27;;;;;;;0.88;0.30;;;21.00;99.90;;;;;;5068807;28;20206;-76
2022/09/14 06:25:58;;;;;;;1.75;0.40;;;21.10;99.90;;;;;;5069674;28;20200;-76
2022/09/14 06:28:30;;;;;;;0.50;0.20;;;21.10;99.90;;;;;;5069223;28;20291;-77
2022/09/14 06:31:02;;;;;;;1.55;0.40;;;21.20;99.90;;;;;;5068272;28;20206;-78
2022/09/14 06:33:35;;;;;;;0.98;0.40;;;21.10;99.90;;;;;;5053839;28;20193;-77
2022/09/14 06:36:08;;;;;;;0.70;0.30;;;21.10;99.90;;;;;;5061093;28;20647;-77
2022/09/14 06:38:39;;;;;;;0.60;0.32;;;21.10;99.90;;;;;;5050175;28;20231;-78
2022/09/14 06:41:11;;;;;;;0.77;0.40;;;21.00;99.90;;;;;;5062912;28;20235;-77
2022/09/14 06:43:43;;;;;;;1.15;0.40;;;21.20;99.90;;;;;;5061619;28;20629;-78
2022/09/14 06:46:15;;;;;;;1.20;0.38;;;21.30;99.90;;;;;;5069613;28;20200;-78
2022/09/14 06:48:49;;;;;;;0.88;0.40;;;21.20;99.90;;;;;;5053681;28;20200;-77
2022/09/14 06:51:22;;;;;;;1.38;0.52;;;21.20;99.90;;;;;;5068419;28;20196;-78
2022/09/14 06:53:54;;;;;;;0.47;0.20;;;21.00;99.90;;;;;;5067479;28;20203;-78
2022/09/14 06:56:25;;;;;;;2.08;0.40;;;20.90;99.90;;;;;;5070272;28;20257;-77
2022/09/14 06:58:55;;;;;;;0.85;0.40;;;20.70;99.90;;;;;;5070620;28;20264;-78
2022/09/14 07:01:27;;;;;;;0.30;0.30;;;20.50;99.90;;;;;;5068725;28;20231;-78
2022/09/14 07:04:00;;;;;;;1.35;0.50;;;20.10;99.90;;;;;;5069041;28;20207;-77
2022/09/14 07:06:32;;;;;;;0.75;0.40;;;19.70;99.90;;;;;;5063969;28;20199;-78
2022/09/14 07:09:06;;;;;;;2.67;0.55;;;19.40;99.90;;;;;;5064550;28;20607;-78
2022/09/14 07:11:37;;;;;;;1.30;0.40;;;19.20;99.90;;;;;;5066104;28;20199;-78
2022/09/14 07:14:09;;;;;;;0.98;0.30;;;19.10;99.90;;;;;;5068479;28;20203;-78
2022/09/14 07:16:41;;;;;;;2.58;0.50;;;18.90;99.90;;;;;;5069322;28;20563;-77
2022/09/14 07:19:15;;;;;;;1.05;0.65;;;18.80;99.90;;;;;;5066657;28;20238;-76
2022/09/14 07:21:46;;;;;;;1.08;0.60;;;18.60;99.90;;;;;;5066854;28;20631;-77
2022/09/14 07:24:17;;;;;;;1.02;0.60;;;18.40;99.90;;;;;;5065414;28;20269;-76
2022/09/14 07:26:48;;;;;;;1.60;0.50;;;18.30;99.90;;;;;;5072757;28;20227;-77
2022/09/14 07:29:21;;;;;;;1.63;0.60;;;18.10;99.90;;;;;;5077915;28;20538;-75
2022/09/14 07:31:55;;;;;;;2.08;0.43;;;18.00;99.90;;;;;;5077793;28;20204;-77
2022/09/14 07:34:28;;;;;;;2.97;0.60;;;17.90;99.90;;;;;;5069340;28;20202;-77
2022/09/14 07:36:59;;;;;;;1.65;0.52;;;17.90;99.90;;;;;;5068564;28;20203;-76
2022/09/14 07:39:29;;;;;;;2.00;0.70;;;17.70;99.90;;;;;;5067001;28;20231;-77
2022/09/14 07:42:00;;;;;;;1.65;0.60;;;17.70;99.90;;;;;;5068085;28;20220;-77
2022/09/14 07:44:31;;;;;;;1.05;0.50;;;17.60;99.90;;;;;;5067065;28;20191;-77
2022/09/14 07:47:01;;;;;;;0.63;0.50;;;17.60;99.90;;;;;;5070019;28;20200;-77
2022/09/14 07:49:34;;;;;;;1.38;0.50;;;17.50;99.90;;;;;;5067881;28;20192;-77
2022/09/14 07:52:05;;;;;;;1.25;0.57;;;17.50;99.90;;;;;;5066411;28;20200;-77
2022/09/14 07:54:36;;;;;;;2.67;0.73;;;17.40;99.90;;;;;;5067917;28;20290;-77
2022/09/14 07:57:06;;;;;;;2.35;0.70;;;17.50;99.90;;;;;;5052004;28;20306;-77
2022/09/14 07:59:37;;;;;;;1.52;0.50;;;17.40;99.90;;;;;;5054126;28;20196;-78
2022/09/14 08:02:09;;;;;;;2.35;0.80;;;17.40;99.90;;;;;;5068755;28;20277;-78
2022/09/14 08:04:41;;;;;;;1.65;0.60;;;17.30;99.90;;;;;;5068517;28;20647;-77
2022/09/14 08:07:12;;;;;;;1.33;0.68;;;17.10;99.90;;;;;;5066177;28;20209;-77
2022/09/14 08:09:43;;;;;;;2.38;0.70;;;17.10;99.90;;;;;;5067372;28;20654;-76
2022/09/14 08:12:15;;;;;;;1.42;0.70;;;17.10;99.90;;;;;;5067425;28;20227;-77
2022/09/14 08:14:45;;;;;;;2.70;0.63;;;17.20;99.90;;;;;;5068893;28;20204;-77
2022/09/14 08:17:16;;;;;;;2.80;0.82;;;17.20;99.90;;;;;;5051033;28;20200;-77
2022/09/14 08:19:50;;;;;;;3.85;0.90;;;17.10;99.90;;;;;;5054725;28;20200;-78
2022/09/14 08:22:21;;;;;;;2.55;0.70;;;17.10;99.90;;;;;;5067292;28;20273;-76
2022/09/14 08:24:51;;;;;;;4.22;1.05;;;17.10;99.90;;;;;;5067795;28;20222;-77
2022/09/14 08:27:22;;;;;;;1.48;0.60;;;17.10;99.90;;;;;;5072129;28;20581;-77
2022/09/14 08:29:55;;;;;;;0.93;0.60;;;17.00;99.90;;;;;;5072173;28;20200;-76
2022/09/14 08:32:26;;;;;;;1.98;0.82;;;16.90;99.90;;;;;;5072421;28;20696;-77
2022/09/14 08:34:59;;;;;;;2.13;0.90;;;16.90;99.90;;;;;;5071963;28;20200;-78
2022/09/14 08:37:30;;;;;;;3.65;1.10;;;17.00;99.90;;;;;;5067138;28;20229;-76
2022/09/14 08:40:01;;;;;;;1.73;0.65;;;17.00;99.90;;;;;;5069531;28;20755;-77
2022/09/14 08:42:33;;;;;;;2.45;0.88;;;16.90;99.90;;;;;;5070856;28;20230;-77
2022/09/14 08:45:07;;;;;;;2.50;1.00;;;16.90;99.90;;;;;;5069511;28;20567;-77
2022/09/14 08:47:40;;;;;;;1.40;0.80;;;16.80;99.90;;;;;;5065262;28;20215;-77
2022/09/14 08:50:18;;;;;;;1.60;0.70;;;16.80;99.90;;;;;;5061735;28;20299;-79
2022/09/14 08:52:51;;;;;;;2.65;0.73;;;16.80;99.90;;;;;;5057831;28;20203;-80
2022/09/14 08:55:33;;;;;;;2.13;0.80;;;16.80;99.90;;;;;;5071128;28;20221;-79
2022/09/14 08:58:09;;;;;;;4.20;0.73;;;16.80;99.90;;;;;;5070765;28;20192;-78
2022/09/14 09:00:45;;;;;;;2.47;0.60;;;16.80;99.90;;;;;;5056275;28;20206;-79
2022/09/14 09:03:35;;;;;;;3.55;0.80;;;16.70;99.90;;;;;;5070568;28;20251;-81
2022/09/14 09:06:14;;;;;;;3.50;0.90;;;16.70;99.90;;;;;;5067361;28;20196;-78
2022/09/14 09:08:54;;;;;;;2.67;0.80;;;16.70;99.90;;;;;;5068564;28;20192;-79
2022/09/14 09:11:28;;;;;;;1.08;0.63;;;16.70;99.90;;;;;;5069003;28;20721;-78
2022/09/14 09:13:59;;;;;;;2.25;0.80;;;16.70;99.90;;;;;;5065825;28;20199;-78
2022/09/14 09:16:30;;;;;;;2.25;0.77;;;16.70;99.90;;;;;;5071198;28;20601;-78
2022/09/14 09:19:04;;;;;;;1.88;0.52;;;16.70;99.90;;;;;;5069543;28;20246;-78
2022/09/14 09:21:42;;;;;;;2.13;0.70;;;16.70;99.90;;;;;;5071250;28;20222;-77
2022/09/14 09:24:22;;;;;;;1.85;0.65;;;16.60;99.90;;;;;;5069224;28;20192;-78
2022/09/14 09:26:53;;;;;;;1.58;0.63;;;16.70;99.90;;;;;;5051545;28;20224;-78
2022/09/14 09:29:24;;;;;;;2.88;0.80;;;16.70;99.90;;;;;;5069304;28;20206;-79
2022/09/14 09:31:57;;;;;;;2.88;0.60;;;16.70;99.90;;;;;;5058568;28;20203;-79
2022/09/14 09:34:30;;;;;;;2.60;0.65;;;16.70;99.90;;;;;;5070881;28;20195;-79
2022/09/14 09:37:04;;;;;;;2.00;0.60;;;16.70;99.90;;;;;;5063810;28;20679;-78
2022/09/14 09:39:36;;;;;;;1.98;0.60;;;16.70;99.90;;;;;;5067015;28;20246;-80
2022/09/14 09:42:14;;;;;;;1.73;0.60;;;16.60;99.90;;;;;;5067787;28;20305;-80
2022/09/14 09:44:59;;;;;;;2.33;0.68;;;16.60;99.90;;;;;;5069525;28;20195;-80
2022/09/14 09:47:34;;;;;;;0.80;0.55;;;16.70;99.90;;;;;;5071483;28;20230;-80
2022/09/14 09:50:07;;;;;;;1.58;0.50;;;16.60;99.90;;;;;;5070339;28;20199;-80
2022/09/14 09:52:40;;;;;;;0.68;0.68;;;16.60;99.90;;;;;;5070126;28;20203;-80
2022/09/14 09:55:19;;;;;;;1.33;0.60;;;16.60;99.90;;;;;;5069743;28;20200;-81
2022/09/14 09:57:50;;;;;;;0.95;0.60;;;16.60;99.90;;;;;;5070548;28;20206;-81
2022/09/14 10:00:41;;;;;;;1.38;0.60;;;16.60;99.90;;;;;;5121112;27;20552;-81
2022/09/14 10:03:30;;;;;;;2.17;0.52;;;16.60;99.90;;;;;;5107553;28;20198;-82
2022/09/14 10:06:14;;;;;;;3.13;0.80;;;16.70;99.90;;;;;;5099845;28;20237;-78
2022/09/14 10:08:46;;;;;;;2.53;0.70;;;16.70;99.90;;;;;;5114593;28;20195;-80
2022/09/14 10:11:36;;;;;;;2.13;0.70;;;16.70;99.90;;;;;;5108084;28;20192;-80
2022/09/14 10:14:07;;;;;;;0.82;0.63;;;16.60;99.90;;;;;;5113970;28;20566;-80
2022/09/14 10:16:42;;;;;;;0.95;0.70;;;16.60;99.90;;;;;;5108174;28;20203;-79
2022/09/14 10:19:19;;;;;;;0.95;0.60;;;16.60;99.90;;;;;;5103393;28;20256;-79
2022/09/14 10:22:20;;;;;;;1.75;0.50;;;16.50;99.90;;;;;;5104826;28;20217;-79
2022/09/14 10:25:01;;;;;;;2.80;0.70;;;16.50;99.90;;;;;;5105779;28;20565;-81
2022/09/14 10:27:41;;;;;;;1.60;0.47;;;16.50;99.90;;;;;;5112606;28;20199;-80
2022/09/14 10:30:20;;;;;;;1.08;0.50;;;16.50;99.90;;;;;;5095662;28;20191;-80
2022/09/14 10:32:58;;;;;;;1.50;0.50;;;16.50;99.90;;;;;;5093556;28;20205;-81
2022/09/14 10:35:36;;;;;;;1.77;0.50;;;16.50;99.90;;;;;;5102085;28;20194;-80
2022/09/14 10:38:24;;;;;;;1.25;0.30;;;16.50;99.90;;;;;;5109722;28;20608;-79
2022/09/14 10:41:22;;;;;;;2.88;0.43;;;16.40;99.90;;;;;;5109673;28;20190;-78
2022/09/14 10:44:21;;;;;;;0.82;0.50;;;16.50;99.90;;;;;;5110141;28;20195;-79
2022/09/14 10:47:04;;;;;;;1.30;0.60;;;16.50;99.90;;;;;;5075961;28;20196;-79
2022/09/14 10:49:52;;;;;;;2.03;0.70;;;16.50;99.90;;;;;;5103269;28;20191;-80
2022/09/14 10:52:33;;;;;;;1.05;0.55;;;16.50;99.90;;;;;;5102092;28;20195;-80
2022/09/14 10:55:30;;;;;;;2.58;0.70;;;16.50;99.90;;;;;;5098602;28;20222;-79
2022/09/14 10:58:26;;;;;;;0.95;0.43;;;16.50;99.90;;;;;;5108723;28;20526;-80
2022/09/14 11:01:06;;;;;;;1.05;0.30;;;16.50;99.90;;;;;;5112148;28;20195;-79
2022/09/14 11:03:49;;;;;;;3.72;0.60;;;16.50;99.90;;;;;;5114710;28;20661;-79
2022/09/14 11:06:34;;;;;;;1.02;0.50;;;16.50;99.90;;;;;;5108980;28;20198;-80
2022/09/14 11:09:09;;;;;;;0.85;0.35;;;16.40;99.90;;;;;;5109537;28;20555;-81
2022/09/14 11:11:59;;;;;;;2.92;0.85;;;16.40;99.90;;;;;;5086205;28;20205;-76
2022/09/14 11:15:00;;;;;;;0.52;0.28;;;16.40;99.90;;;;;;5090069;28;22196;-80
2022/09/14 11:18:00;;;;;;;1.52;0.50;;;16.40;99.90;;;;;;5089041;28;20665;-79
2022/09/14 11:20:40;;;;;;;1.50;0.50;;;16.40;99.90;;;;;;5096370;28;20231;-81
2022/09/14 11:23:25;;;;;;;1.45;0.75;;;16.40;99.90;;;;;;5084807;28;20570;-81
2022/09/14 11:25:59;;;;;;;1.67;0.70;;;16.40;99.90;;;;;;5089939;28;20198;-81
2022/09/14 11:28:39;;;;;;;1.60;0.70;;;16.40;99.90;;;;;;5082668;28;20659;-81
2022/09/14 11:31:15;;;;;;;1.40;0.98;;;16.40;99.90;;;;;;5089229;28;20195;-80
2022/09/14 11:33:50;;;;;;;1.10;0.70;;;16.40;99.90;;;;;;5091889;28;20206;-80
2022/09/14 11:36:26;;;;;;;0.73;0.40;;;16.30;99.90;;;;;;5087429;28;20233;-81
2022/09/14 11:39:05;;;;;;;2.88;0.63;;;16.30;99.90;;;;;;5085889;28;20689;-80
2022/09/14 11:41:39;;;;;;;2.50;0.55;;;16.30;99.90;;;;;;5086320;28;20199;-81
2022/09/14 11:44:18;;;;;;;1.40;0.60;;;16.20;99.90;;;;;;5081183;28;20197;-81
2022/09/14 11:46:52;;;;;;;1.60;0.82;;;16.20;99.90;;;;;;5091818;28;20407;-80
2022/09/14 11:49:29;;;;;;;2.25;0.55;;;16.20;99.90;;;;;;5088261;28;20199;-80
2022/09/14 11:52:04;;;;;;;2.10;0.70;;;16.20;99.90;;;;;;5082897;28;20237;-80
2022/09/14 11:54:40;;;;;;;1.70;0.68;;;16.20;99.90;;;;;;5087219;28;20190;-80
2022/09/14 11:57:18;;;;;;;2.90;0.93;;;16.10;99.90;;;;;;5091161;28;20199;-80
2022/09/14 11:59:52;;;;;;;3.38;1.15;;;16.10;99.90;;;;;;5090372;28;20321;-80
2022/09/14 12:03:01;;;;;;;2.92;0.90;;;16.10;99.90;;;;;;5081427;28;20253;-79
2022/09/14 12:05:42;;;;;;;2.10;0.73;;;16.00;99.90;;;;;;5085622;28;20199;-81
2022/09/14 12:08:41;;;;;;;3.20;1.70;;;16.00;99.90;;;;;;5091599;28;20274;-81
2022/09/14 12:11:37;;;;;;;1.65;1.00;;;15.90;99.90;;;;;;5092255;28;20224;-81
2022/09/14 12:14:39;;;;;;;2.05;0.70;;;15.90;99.90;;;;;;5071504;28;20203;-80
2022/09/14 12:17:22;;;;;;;2.55;0.80;;;15.90;99.90;;;;;;5078767;28;20198;-81
2022/09/14 12:19:57;;;;;;;2.13;0.90;;;15.90;99.90;;;;;;5091583;28;20227;-80
2022/09/14 12:22:34;;;;;;;0.90;0.60;;;15.90;99.90;;;;;;5086839;28;20199;-80
2022/09/14 12:25:07;;;;;;;2.92;0.88;;;15.90;99.90;;;;;;5087438;28;20657;-80
2022/09/14 12:27:42;;;;;;;2.17;0.70;;;15.80;99.90;;;;;;5087603;28;20188;-81
2022/09/14 12:30:53;;;;;;;1.13;0.70;;;15.80;99.90;;;;;;5081349;28;20613;-81
2022/09/14 12:33:45;;;;;;;3.42;0.80;;;15.80;99.90;;;;;;5042374;28;20248;-81
2022/09/14 12:36:53;;;;;;;2.08;0.70;;;15.80;99.90;;;;;;5063676;28;20592;-82
2022/09/14 12:39:25;;;;;;;2.40;0.90;;;15.80;99.90;;;;;;5083813;28;20637;-82
2022/09/14 12:42:20;;;;;;;2.17;1.10;;;15.80;99.90;;;;;;5076586;28;20191;-82
2022/09/14 12:44:53;;;;;;;2.15;0.80;;;15.80;99.90;;;;;;5079998;28;20253;-81
2022/09/14 12:47:51;;;;;;;1.88;1.00;;;15.80;99.90;;;;;;5078025;28;20203;-81
2022/09/14 12:50:23;;;;;;;2.50;1.15;;;15.70;99.90;;;;;;5088593;28;20196;-81
2022/09/14 12:53:23;;;;;;;3.20;1.23;;;15.70;99.90;;;;;;5089251;28;20677;-82
2022/09/14 12:56:00;;;;;;;3.70;1.20;;;15.60;99.90;;;;;;5088807;28;20658;-80
2022/09/14 12:58:50;;;;;;;4.07;1.27;;;15.50;99.90;;;;;;5089513;28;20246;-81
2022/09/14 13:01:31;;;;;;;2.05;1.02;;;15.50;99.90;;;;;;5090477;28;20223;-81
2022/09/14 13:04:03;;;;;;;1.17;1.00;;;15.40;99.90;;;;;;5091536;28;20611;-81
2022/09/14 13:06:42;;;;;;;1.63;0.77;;;15.40;99.90;;;;;;5071171;28;20253;-81
2022/09/14 13:09:21;;;;;;;3.15;1.10;;;15.30;99.90;;;;;;5085232;28;20195;-82
2022/09/14 13:11:57;;;;;;;1.70;0.95;;;15.30;99.90;;;;;;5090316;28;20726;-82
2022/09/14 13:14:33;;;;;;;2.15;0.93;;;15.30;99.90;;;;;;5089930;28;20205;-82
2022/09/14 13:17:06;;;;;;;1.60;0.80;;;15.30;99.90;;;;;;5089897;28;20195;-81
2022/09/14 13:19:37;;;;;;;3.25;0.98;;;15.30;99.90;;;;;;5089984;28;20215;-81
2022/09/14 13:22:20;;;;;;;2.58;0.80;;;15.30;99.90;;;;;;5091827;28;20199;-81
2022/09/14 13:24:51;;;;;;;1.88;1.00;;;15.20;99.90;;;;;;5090912;28;20195;-80
2022/09/14 13:27:25;;;;;;;3.38;1.10;;;15.30;99.90;;;;;;5090688;28;20752;-82
2022/09/14 13:30:05;;;;;;;2.08;0.85;;;15.30;99.90;;;;;;5088665;28;20300;-81